Time;durP1;ratioP1;P1;durP2;ratioP2;P2;SDS_P1;SDS_P2;PMS_P1;PMS_P2;Temp;Humidity;BMP_temperature;BMP_pressure;BME280_temperature;BME280_humidity;BME280_pressure;Samples;Min_cycle;Max_cycle;Signal;HPM_P1;HPM_P2
2023/05/19 00:01:42;;;;;;;15.23;5.47;;;;;;;;;;5137633;27;20045;-93
2023/05/19 00:04:27;;;;;;;13.80;5.80;;;;;;;;;;5146640;27;20490;-93
2023/05/19 00:07:12;;;;;;;15.05;4.80;;;;;;;;;;5153928;27;20038;-93
2023/05/19 00:09:57;;;;;;;13.60;5.63;;;;;;;;;;5153443;27;20031;-92
2023/05/19 00:12:42;;;;;;;14.80;5.50;;;;;;;;;;5138068;27;20157;-92
2023/05/19 00:15:27;;;;;;;15.82;5.70;;;;;;;;;;5125451;27;20034;-94
2023/05/19 00:18:12;;;;;;;16.88;6.15;;;;;;;;;;5146588;27;20467;-93
2023/05/19 00:20:57;;;;;;;11.60;6.00;;;;;;;;;;5153657;27;20045;-94
2023/05/19 00:23:42;;;;;;;19.75;6.05;;;;;;;;;;5138332;27;20050;-92
2023/05/19 00:26:27;;;;;;;13.40;5.47;;;;;;;;;;5137396;27;20042;-91
2023/05/19 00:29:12;;;;;;;14.52;5.55;;;;;;;;;;5153857;27;20494;-93
2023/05/19 00:31:56;;;;;;;18.65;6.45;;;;;;;;;;5138717;27;20086;-93
2023/05/19 00:34:41;;;;;;;17.65;6.40;;;;;;;;;;5128583;28;20046;-93
2023/05/19 00:37:26;;;;;;;13.48;5.95;;;;;;;;;;5136333;27;20139;-93
2023/05/19 00:40:11;;;;;;;15.90;5.78;;;;;;;;;;5125077;27;20070;-94
2023/05/19 00:42:55;;;;;;;14.82;6.97;;;;;;;;;;5152839;27;20046;-91
2023/05/19 00:45:40;;;;;;;17.55;6.15;;;;;;;;;;5139706;27;20158;-93
2023/05/19 00:48:24;;;;;;;12.95;5.70;;;;;;;;;;5155592;27;20037;-92
2023/05/19 00:51:13;;;;;;;14.40;5.53;;;;;;;;;;5162426;27;20091;-93
2023/05/19 00:53:58;;;;;;;14.02;6.20;;;;;;;;;;5149418;27;20060;-92
2023/05/19 00:56:42;;;;;;;17.63;4.90;;;;;;;;;;5170923;27;20880;-93
2023/05/19 00:59:27;;;;;;;19.48;5.40;;;;;;;;;;5168595;27;20401;-92
2023/05/19 01:02:12;;;;;;;19.58;5.72;;;;;;;;;;5153839;27;20125;-93
2023/05/19 01:04:56;;;;;;;12.55;5.50;;;;;;;;;;5134990;27;20065;-93
2023/05/19 01:07:41;;;;;;;16.45;6.82;;;;;;;;;;5126760;27;20160;-93
2023/05/19 01:10:26;;;;;;;14.77;6.15;;;;;;;;;;5145692;27;20599;-92
2023/05/19 01:13:11;;;;;;;19.42;6.60;;;;;;;;;;5146211;27;20037;-93
2023/05/19 01:15:59;;;;;;;15.32;6.07;;;;;;;;;;5157081;27;20083;-93
2023/05/19 01:18:54;;;;;;;19.42;6.63;;;;;;;;;;5128511;27;20167;-91
2023/05/19 01:21:48;;;;;;;16.55;6.45;;;;;;;;;;5156114;27;20045;-91
2023/05/19 01:24:35;;;;;;;18.45;6.70;;;;;;;;;;5156344;27;20398;-92
2023/05/19 01:28:00;;;;;;;18.80;6.82;;;7.30;99.90;;;;;;5146381;27;20037;-92
2023/05/19 01:30:49;;;;;;;14.07;5.97;;;7.30;99.90;;;;;;5140175;27;20111;-92
2023/05/19 01:33:35;;;;;;;17.90;6.15;;;;;;;;;;5155944;27;20560;-92
2023/05/19 01:36:21;;;;;;;14.45;6.22;;;;;;;;;;5140824;27;20390;-93
2023/05/19 01:39:06;;;;;;;17.10;6.00;;;;;;;;;;5156199;27;20390;-92
2023/05/19 01:41:52;;;;;;;20.48;6.10;;;7.30;99.90;;;;;;5153814;27;20596;-92
2023/05/19 01:44:37;;;;;;;15.95;6.35;;;;;;;;;;5132405;27;20042;-92
2023/05/19 01:47:22;;;;;;;20.60;7.18;;;;;;;;;;5151396;27;20156;-94
2023/05/19 01:50:07;;;;;;;15.30;6.32;;;;;;;;;;5156366;27;20038;-93
2023/05/19 01:52:51;;;;;;;22.23;6.22;;;;;;;;;;5124591;27;20134;-92
2023/05/19 01:55:46;;;;;;;13.18;5.75;;;;;;;;;;5126319;27;20099;-93
2023/05/19 01:58:47;;;;;;;21.60;7.20;;;;;;;;;;5134792;27;20046;-88
2023/05/19 02:02:01;;;;;;;15.20;6.05;;;;;;;;;;5154213;27;20055;-89
2023/05/19 02:04:57;;;;;;;22.55;6.18;;;;;;;;;;5131337;27;20072;-93
2023/05/19 02:07:44;;;;;;;17.55;6.47;;;;;;;;;;5134465;27;20280;-93
2023/05/19 02:10:29;;;;;;;23.08;6.55;;;;;;;;;;5155970;27;20037;-95
2023/05/19 02:13:17;;;;;;;20.15;6.70;;;;;;;;;;5155602;27;20049;-93
2023/05/19 02:16:04;;;;;;;26.92;7.80;;;7.20;99.90;;;;;;5150423;27;20141;-91
2023/05/19 02:18:50;;;;;;;21.20;6.75;;;;;;;;;;5153087;27;20062;-93
2023/05/19 02:21:35;;;;;;;20.10;6.40;;;;;;;;;;5111650;27;20090;-92
2023/05/19 02:24:21;;;;;;;15.30;6.68;;;;;;;;;;5131311;27;20076;-93
2023/05/19 02:27:06;;;;;;;17.65;6.95;;;;;;;;;;5122889;27;20434;-93
2023/05/19 02:29:51;;;;;;;22.02;6.90;;;;;;;;;;5139340;27;20034;-93
2023/05/19 02:32:35;;;;;;;22.40;6.25;;;;;;;;;;5120073;27;20047;-88
2023/05/19 02:35:20;;;;;;;18.95;5.80;;;;;;;;;;5132021;27;20037;-93
2023/05/19 02:38:05;;;;;;;24.75;6.40;;;;;;;;;;5144150;27;20033;-94
2023/05/19 02:40:51;;;;;;;14.98;5.03;;;;;;;;;;5136921;27;20061;-93
2023/05/19 02:43:36;;;;;;;16.40;5.32;;;;;;;;;;5154934;27;20430;-88
2023/05/19 02:46:20;;;;;;;11.43;5.25;;;;;;;;;;5142039;27;20087;-94
2023/05/19 02:49:05;;;;;;;13.85;5.90;;;;;;;;;;5152534;27;20509;-95
2023/05/19 02:51:49;;;;;;;20.02;7.22;;;;;;;;;;5154663;27;20390;-94
2023/05/19 02:54:34;;;;;;;15.70;5.53;;;;;;;;;;5138872;27;20065;-93
2023/05/19 02:57:19;;;;;;;14.85;4.80;;;;;;;;;;5139344;27;20034;-94
2023/05/19 03:00:07;;;;;;;13.38;5.82;;;;;;;;;;5131705;27;20066;-95
2023/05/19 03:02:52;;;;;;;13.98;5.78;;;;;;;;;;5138505;27;20139;-93
2023/05/19 03:05:37;;;;;;;13.35;5.18;;;;;;;;;;5139302;27;20394;-88
2023/05/19 03:08:22;;;;;;;21.42;5.85;;;;;;;;;;5139968;27;20033;-94
2023/05/19 03:11:06;;;;;;;14.43;4.60;;;;;;;;;;5154588;27;20508;-93
2023/05/19 03:13:51;;;;;;;19.17;6.13;;;;;;;;;;5153117;27;20073;-92
2023/05/19 03:16:36;;;;;;;12.30;5.20;;;;;;;;;;5120390;27;20074;-93
2023/05/19 03:19:21;;;;;;;11.23;4.80;;;;;;;;;;5146824;27;20164;-93
2023/05/19 03:22:06;;;;;;;16.67;5.93;;;;;;;;;;5125443;27;20083;-91
2023/05/19 03:24:52;;;;;;;9.80;4.93;;;;;;;;;;5153458;27;20038;-94
2023/05/19 03:27:36;;;;;;;14.85;5.35;;;;;;;;;;5138833;27;20513;-94
2023/05/19 03:30:21;;;;;;;15.65;5.85;;;;;;;;;;5138514;27;20041;-94
2023/05/19 03:33:05;;;;;;;10.75;5.75;;;;;;;;;;5130608;27;20042;-94
2023/05/19 03:35:51;;;;;;;20.33;6.97;;;;;;;;;;5138129;27;20061;-92
2023/05/19 03:38:36;;;;;;;15.40;5.93;;;;;;;;;;5153739;27;20057;-94
2023/05/19 03:41:21;;;;;;;19.58;5.80;;;;;;;;;;5151394;27;20037;-94
2023/05/19 03:44:06;;;;;;;14.82;5.85;;;;;;;;;;5136965;27;20493;-91
2023/05/19 03:46:50;;;;;;;20.65;6.53;;;;;;;;;;5123145;27;20042;-93
2023/05/19 03:49:35;;;;;;;17.90;5.90;;;;;;;;;;5126318;27;20546;-94
2023/05/19 03:52:19;;;;;;;18.30;6.55;;;;;;;;;;5153617;27;20050;-93
2023/05/19 03:55:04;;;;;;;19.48;6.05;;;;;;;;;;5153465;27;20095;-93
2023/05/19 03:57:49;;;;;;;17.58;5.90;;;;;;;;;;5123525;27;20077;-92
2023/05/19 04:00:33;;;;;;;17.98;6.45;;;;;;;;;;5123111;27;20048;-92
2023/05/19 04:03:18;;;;;;;20.75;7.10;;;;;;;;;;5127382;27;20053;-91
2023/05/19 04:06:03;;;;;;;15.77;5.90;;;;;;;;;;5117087;27;20034;-92
2023/05/19 04:08:47;;;;;;;18.50;6.18;;;;;;;;;;5129586;27;20041;-90
2023/05/19 04:11:32;;;;;;;23.80;7.10;;;;;;;;;;5153958;27;20037;-93
2023/05/19 04:14:18;;;;;;;26.20;8.57;;;;;;;;;;5157836;27;20046;-94
2023/05/19 04:17:03;;;;;;;25.70;6.65;;;;;;;;;;5138702;27;20390;-94
2023/05/19 04:19:47;;;;;;;22.65;6.97;;;;;;;;;;5135101;27;20038;-88
2023/05/19 04:22:32;;;;;;;21.83;7.45;;;;;;;;;;5127755;27;20076;-92
2023/05/19 04:25:18;;;;;;;11.82;7.10;;;;;;;;;;5142101;27;20106;-94
2023/05/19 04:28:03;;;;;;;23.48;7.70;;;;;;;;;;5131570;27;20038;-94
2023/05/19 04:30:49;;;;;;;20.33;7.55;;;;;;;;;;5146379;27;20038;-90
2023/05/19 04:33:33;;;;;;;24.73;8.13;;;;;;;;;;5161298;27;20095;-91
2023/05/19 04:36:20;;;;;;;26.92;8.43;;;;;;;;;;5144371;27;20177;-93
2023/05/19 04:39:06;;;;;;;18.73;7.38;;;7.50;99.90;;;;;;5145494;27;20029;-92
2023/05/19 04:41:52;;;;;;;26.67;8.23;;;;;;;;;;5133654;27;20038;-89
2023/05/19 04:44:40;;;;;;;32.00;9.85;;;;;;;;;;5139976;27;20079;-93
2023/05/19 04:47:26;;;;;;;21.92;8.40;;;;;;;;;;5153791;27;20046;-93
2023/05/19 04:50:11;;;;;;;23.90;7.15;;;;;;;;;;5154397;27;20049;-93
2023/05/19 04:52:58;;;;;;;24.20;8.15;;;;;;;;;;5140022;27;20444;-93
2023/05/19 04:55:44;;;;;;;23.30;7.55;;;;;;;;;;5153400;27;20062;-91
2023/05/19 04:58:29;;;;;;;23.38;7.53;;;;;;;;;;5152871;27;20061;-91
2023/05/19 05:01:14;;;;;;;22.75;8.52;;;;;;;;;;5118817;27;20333;-93
2023/05/19 05:04:01;;;;;;;20.65;9.13;;;;;;;;;;5154483;27;20521;-93
2023/05/19 05:06:47;;;;;;;25.98;7.72;;;;;;;;;;5120557;27;20037;-93
2023/05/19 05:09:32;;;;;;;22.13;7.85;;;;;;;;;;5139637;27;20042;-92
2023/05/19 05:12:17;;;;;;;23.48;8.02;;;8.70;99.90;;;;;;5155957;27;20046;-93
2023/05/19 05:15:02;;;;;;;20.92;7.53;;;;;;;;;;5118148;27;20131;-92
2023/05/19 05:17:47;;;;;;;21.70;7.90;;;;;;;;;;5126198;27;20091;-91
2023/05/19 05:20:32;;;;;;;17.52;6.60;;;;;;;;;;5156555;27;20041;-93
2023/05/19 05:23:16;;;;;;;17.20;7.43;;;;;;;;;;5140121;27;20073;-92
2023/05/19 05:26:08;;;;;;;20.65;8.18;;;9.20;99.90;;;;;;5155945;27;20038;-94
2023/05/19 05:28:52;;;;;;;19.52;8.30;;;;;;;;;;5140407;27;20038;-92
2023/05/19 05:31:37;;;;;;;17.35;7.40;;;;;;;;;;5156052;27;20046;-92
2023/05/19 05:34:22;;;;;;;15.25;7.05;;;;;;;;;;5156074;27;20122;-92
2023/05/19 05:37:06;;;;;;;14.65;7.10;;;;;;;;;;5154260;27;20497;-93
2023/05/19 05:39:51;;;;;;;15.60;6.70;;;;;;;;;;5130050;27;20518;-93
2023/05/19 05:42:35;;;;;;;18.95;6.95;;;;;;;;;;5155599;27;20439;-92
2023/05/19 05:45:21;;;;;;;24.70;9.05;;;;;;;;;;5155107;27;20071;-93
2023/05/19 05:48:05;;;;;;;13.27;6.38;;;;;;;;;;5155247;27;20401;-92
2023/05/19 05:50:51;;;;;;;16.27;6.72;;;;;;;;;;5138736;27;20114;-93
2023/05/19 05:53:43;;;;;;;12.93;6.53;;;10.00;99.90;;;;;;5139574;27;20211;-91
2023/05/19 05:56:28;;;;;;;15.07;6.40;;;;;;;;;;5129032;27;20030;-91
2023/05/19 05:59:12;;;;;;;15.25;6.40;;;;;;;;;;5138405;27;20030;-92
2023/05/19 06:01:57;;;;;;;13.52;6.28;;;;;;;;;;5138716;27;20580;-92
2023/05/19 06:04:42;;;;;;;13.13;5.88;;;;;;;;;;5141676;27;20083;-91
2023/05/19 06:07:27;;;;;;;18.58;7.20;;;;;;;;;;5155268;27;20393;-91
2023/05/19 06:10:12;;;;;;;15.90;6.07;;;;;;;;;;5152704;27;20131;-91
2023/05/19 06:12:57;;;;;;;15.95;5.47;;;;;;;;;;5136885;27;20045;-92
2023/05/19 06:15:41;;;;;;;17.05;6.30;;;;;;;;;;5139757;27;20499;-92
2023/05/19 06:18:26;;;;;;;14.35;5.65;;;;;;;;;;5154560;27;20041;-89
2023/05/19 06:21:12;;;;;;;9.15;5.78;;;;;;;;;;5154752;27;20049;-90
2023/05/19 06:23:56;;;;;;;15.80;5.72;;;;;;;;;;5132316;27;20407;-93
2023/05/19 06:26:40;;;;;;;10.18;5.60;;;;;;;;;;5136233;27;20038;-90
2023/05/19 06:29:25;;;;;;;16.73;6.00;;;;;;;;;;5117982;27;20091;-92
2023/05/19 06:32:10;;;;;;;11.80;5.93;;;;;;;;;;5126402;27;20037;-92
2023/05/19 06:34:55;;;;;;;10.75;4.80;;;;;;;;;;5154867;27;20083;-92
2023/05/19 06:37:39;;;;;;;13.73;4.70;;;;;;;;;;5152291;27;20493;-91
2023/05/19 06:40:24;;;;;;;12.15;5.28;;;;;;;;;;5136265;27;20042;-94
2023/05/19 06:43:09;;;;;;;13.35;5.20;;;;;;;;;;5135499;27;20037;-92
2023/05/19 06:45:53;;;;;;;10.80;4.95;;;;;;;;;;5149701;27;20030;-90
2023/05/19 06:48:38;;;;;;;10.80;4.85;;;;;;;;;;5152678;27;20114;-90
2023/05/19 06:51:23;;;;;;;14.07;4.93;;;;;;;;;;5153188;27;20041;-90
2023/05/19 06:54:09;;;;;;;10.52;4.20;;;;;;;;;;5137266;27;20061;-88
2023/05/19 06:56:54;;;;;;;12.32;4.15;;;;;;;;;;5138046;27;20037;-90
2023/05/19 06:59:42;;;;;;;16.05;4.50;;;;;;;;;;5138397;27;20042;-90
2023/05/19 07:02:27;;;;;;;14.85;5.75;;;;;;;;;;5153759;27;20101;-91
2023/05/19 07:05:14;;;;;;;10.50;4.38;;;;;;;;;;5118047;27;20108;-91
2023/05/19 07:07:58;;;;;;;6.05;3.75;;;;;;;;;;5147432;27;20034;-90
2023/05/19 07:10:43;;;;;;;10.85;3.92;;;;;;;;;;5127609;27;20100;-92
2023/05/19 07:13:27;;;;;;;9.88;3.05;;;;;;;;;;5132142;27;20041;-91
2023/05/19 07:16:12;;;;;;;12.27;3.10;;;;;;;;;;5135569;27;20402;-90
2023/05/19 07:18:57;;;;;;;10.18;3.60;;;;;;;;;;5145948;27;20058;-92
2023/05/19 07:21:42;;;;;;;9.05;3.20;;;;;;;;;;5128275;27;20107;-91
2023/05/19 07:24:26;;;;;;;9.27;3.90;;;;;;;;;;5126015;27;20046;-90
2023/05/19 07:27:11;;;;;;;11.70;3.28;;;;;;;;;;5139142;27;20102;-88
2023/05/19 07:29:55;;;;;;;13.93;3.05;;;;;;;;;;5153968;27;20039;-91
2023/05/19 07:32:40;;;;;;;10.15;3.40;;;;;;;;;;5139223;27;20398;-91
2023/05/19 07:35:25;;;;;;;11.63;2.65;;;;;;;;;;5138619;27;20042;-90
2023/05/19 07:38:10;;;;;;;7.53;2.60;;;;;;;;;;5138408;27;20098;-91
2023/05/19 07:40:55;;;;;;;11.35;2.95;;;;;;;;;;5154002;27;20406;-90
2023/05/19 07:43:40;;;;;;;7.20;3.03;;;;;;;;;;5154076;27;20539;-91
2023/05/19 07:46:25;;;;;;;12.48;2.78;;;;;;;;;;5136143;27;20061;-90
2023/05/19 07:49:09;;;;;;;9.48;3.40;;;;;;;;;;5142155;27;20073;-92
2023/05/19 07:51:54;;;;;;;8.05;2.67;;;;;;;;;;5149820;27;20042;-92
2023/05/19 07:54:39;;;;;;;11.38;2.50;;;;;;;;;;5134175;27;20115;-92
2023/05/19 07:57:23;;;;;;;5.45;2.25;;;;;;;;;;5144837;27;20034;-91
2023/05/19 08:00:10;;;;;;;6.35;2.33;;;;;;;;;;5140650;27;20439;-92
2023/05/19 08:02:56;;;;;;;12.68;2.75;;;;;;;;;;5157036;27;20069;-91
2023/05/19 08:05:40;;;;;;;7.78;2.70;;;;;;;;;;5152970;27;20565;-90
2023/05/19 08:08:25;;;;;;;9.57;2.92;;;;;;;;;;5125672;27;20026;-92
2023/05/19 08:11:10;;;;;;;5.80;2.45;;;;;;;;;;5146416;27;20045;-90
2023/05/19 08:13:55;;;;;;;8.13;2.55;;;;;;;;;;5137422;27;20087;-91
2023/05/19 08:16:41;;;;;;;10.00;2.97;;;;;;;;;;5129477;27;20099;-90
2023/05/19 08:19:26;;;;;;;7.30;2.22;;;;;;;;;;5152423;27;20071;-91
2023/05/19 08:22:10;;;;;;;6.05;2.45;;;;;;;;;;5137404;27;20034;-90
2023/05/19 08:24:55;;;;;;;5.22;1.90;;;;;;;;;;5151690;27;20458;-93
2023/05/19 08:27:40;;;;;;;6.75;1.92;;;;;;;;;;5112498;27;20555;-91
2023/05/19 08:30:25;;;;;;;7.72;2.08;;;;;;;;;;5152638;27;20389;-89
2023/05/19 08:33:09;;;;;;;6.60;2.17;;;;;;;;;;5153805;27;20406;-90
2023/05/19 08:35:59;;;;;;;8.43;2.13;;;;;;;;;;5140121;27;20050;-90
2023/05/19 08:38:44;;;;;;;8.27;2.05;;;;;;;;;;5136525;27;20034;-91
2023/05/19 08:41:28;;;;;;;9.48;2.70;;;;;;;;;;5139885;27;20079;-91
2023/05/19 08:44:13;;;;;;;10.20;2.55;;;;;;;;;;5141563;27;20440;-90
2023/05/19 08:47:00;;;;;;;6.68;2.28;;;;;;;;;;5152538;27;20409;-92
2023/05/19 08:49:46;;;;;;;8.35;2.40;;;;;;;;;;5133822;27;20394;-92
2023/05/19 08:52:43;;;;;;;8.55;2.28;;;;;;;;;;5135066;27;20121;-91
2023/05/19 08:55:29;;;;;;;6.35;2.00;;;;;;;;;;5129091;28;20058;-91
2023/05/19 08:58:15;;;;;;;6.95;2.00;;;;;;;;;;5130997;28;20052;-92
2023/05/19 09:01:00;;;;;;;5.85;1.75;;;;;;;;;;5126748;28;20489;-92
2023/05/19 09:03:46;;;;;;;6.05;1.80;;;;;;;;;;5122754;28;20502;-92
2023/05/19 09:06:34;;;;;;;8.18;1.70;;;;;;;;;;5118380;28;20084;-91
2023/05/19 09:09:19;;;;;;;6.75;1.80;;;;;;;;;;5120523;28;20070;-91
2023/05/19 09:12:04;;;;;;;4.80;1.45;;;;;;;;;;5123349;27;20080;-91
2023/05/19 09:14:48;;;;;;;8.10;2.30;;;;;;;;;;5135738;27;20398;-92
2023/05/19 09:17:33;;;;;;;8.50;1.70;;;;;;;;;;5124408;27;20034;-92
2023/05/19 09:20:18;;;;;;;5.53;1.88;;;;;;;;;;5130482;27;20107;-92
2023/05/19 09:23:02;;;;;;;3.67;1.63;;;;;;;;;;5129385;27;20559;-93
2023/05/19 09:25:53;;;;;;;5.20;1.55;;;;;;;;;;5121937;27;20038;-90
2023/05/19 09:28:37;;;;;;;5.22;1.70;;;;;;;;;;5131407;27;20115;-92
2023/05/19 09:31:22;;;;;;;8.63;2.47;;;;;;;;;;5134358;27;20064;-91
2023/05/19 09:34:11;;;;;;;6.15;1.83;;;;;;;;;;5106521;27;20050;-92
2023/05/19 09:36:58;;;;;;;5.55;2.00;;;;;;;;;;5120807;27;20039;-94
2023/05/19 09:39:48;;;;;;;9.13;2.30;;;;;;;;;;5122263;27;20638;-92
2023/05/19 09:42:36;;;;;;;6.90;1.90;;;;;;;;;;5121488;27;20080;-92
2023/05/19 09:45:20;;;;;;;5.47;2.28;;;;;;;;;;5134082;27;20034;-91
2023/05/19 09:48:05;;;;;;;10.13;2.35;;;;;;;;;;5129164;27;20051;-93
2023/05/19 09:50:51;;;;;;;6.85;1.98;;;;;;;;;;5122695;27;20038;-90
2023/05/19 09:53:37;;;;;;;7.28;2.10;;;;;;;;;;5130980;27;20497;-93
2023/05/19 09:56:24;;;;;;;10.20;2.30;;;;;;;;;;5144907;27;20083;-91
2023/05/19 09:59:09;;;;;;;11.10;2.20;;;;;;;;;;5123733;27;20034;-90
2023/05/19 10:01:58;;;;;;;4.10;1.70;;;;;;;;;;5139404;27;20091;-94
2023/05/19 10:04:44;;;;;;;6.90;1.90;;;;;;;;;;5154846;27;20038;-91
2023/05/19 10:07:29;;;;;;;3.58;2.10;;;;;;;;;;5155163;27;20041;-93
2023/05/19 10:10:14;;;;;;;3.50;1.83;;;;;;;;;;5155415;27;20458;-93
2023/05/19 10:12:59;;;;;;;5.53;2.05;;;;;;;;;;5154089;27;20046;-92
2023/05/19 10:15:44;;;;;;;13.65;2.38;;;;;;;;;;5132260;27;20070;-91
2023/05/19 10:18:31;;;;;;;8.82;2.03;;;;;;;;;;5139738;27;20033;-92
2023/05/19 10:21:16;;;;;;;7.00;1.92;;;;;;;;;;5155038;27;20535;-92
2023/05/19 10:24:01;;;;;;;5.40;2.25;;;;;;;;;;5139092;27;20497;-91
2023/05/19 10:26:51;;;;;;;4.97;1.73;;;;;;;;;;5154826;27;20080;-91
2023/05/19 10:29:38;;;;;;;5.82;2.30;;;;;;;;;;5154773;27;20090;-90
2023/05/19 10:32:26;;;;;;;9.88;2.38;;;20.60;57.90;;;;;;5155022;27;20041;-90
2023/05/19 10:35:16;;;;;;;5.78;2.00;;;;;;;;;;5154779;27;20090;-92
2023/05/19 10:38:16;;;;;;;8.10;2.20;;;;;;;;;;5154588;27;20090;-92
2023/05/19 10:41:12;;;;;;;9.80;2.30;;;;;;;;;;5126197;27;20037;-94
2023/05/19 10:44:00;;;;;;;7.80;2.00;;;;;;;;;;5138134;27;20033;-91
2023/05/19 10:46:44;;;;;;;7.68;2.30;;;;;;;;;;5138387;27;20394;-91
2023/05/19 10:49:34;;;;;;;7.72;2.10;;;;;;;;;;5154452;27;20107;-91
2023/05/19 10:52:24;;;;;;;7.97;2.13;;;;;;;;;;5138643;27;20122;-91
2023/05/19 10:55:16;;;;;;;6.13;2.13;;;;;;;;;;5128888;27;20100;-92
2023/05/19 10:58:00;;;;;;;8.20;2.47;;;;;;;;;;5125431;27;20045;-92
2023/05/19 11:00:45;;;;;;;6.05;2.10;;;;;;;;;;5138212;27;20037;-90
2023/05/19 11:03:29;;;;;;;6.43;2.28;;;;;;;;;;5138163;27;20053;-92
2023/05/19 11:06:35;;;;;;;5.65;2.60;;;20.80;54.70;;;;;;5123777;27;20504;-91
2023/05/19 11:09:22;;;;;;;6.38;2.65;;;;;;;;;;5138182;27;20041;-93
2023/05/19 11:12:09;;;;;;;8.00;2.72;;;;;;;;;;5126033;27;20147;-92
2023/05/19 11:14:54;;;;;;;8.00;1.92;;;;;;;;;;5138564;27;20042;-92
2023/05/19 11:17:42;;;;;;;7.75;2.47;;;;;;;;;;5153628;27;20071;-90
2023/05/19 11:20:28;;;;;;;7.75;2.60;;;;;;;;;;5127291;27;20042;-90
2023/05/19 11:23:18;;;;;;;7.40;2.30;;;;;;;;;;5136915;27;20087;-92
2023/05/19 11:26:03;;;;;;;5.95;2.33;;;;;;;;;;5153332;27;20072;-92
2023/05/19 11:28:50;;;;;;;7.32;2.05;;;;;;;;;;5137560;27;20037;-91
2023/05/19 11:31:35;;;;;;;8.45;3.10;;;;;;;;;;5134606;27;20414;-90
2023/05/19 11:34:20;;;;;;;9.32;2.40;;;;;;;;;;5137360;27;20114;-92
2023/05/19 11:37:05;;;;;;;8.13;2.40;;;;;;;;;;5137211;27;20030;-92
2023/05/19 11:39:51;;;;;;;8.75;2.53;;;;;;;;;;5147893;27;20126;-90
2023/05/19 11:42:36;;;;;;;7.60;2.55;;;;;;;;;;5124343;27;20590;-91
2023/05/19 11:45:25;;;;;;;7.43;2.38;;;;;;;;;;5153405;27;20095;-91
2023/05/19 11:48:14;;;;;;;8.52;2.28;;;;;;;;;;5153793;27;20056;-92
2023/05/19 11:50:59;;;;;;;7.05;3.40;;;;;;;;;;5122007;27;20030;-95
2023/05/19 11:53:44;;;;;;;6.47;2.20;;;;;;;;;;5120251;27;20058;-90
2023/05/19 11:56:34;;;;;;;8.50;2.40;;;;;;;;;;5124340;27;20039;-92
2023/05/19 11:59:28;;;;;;;6.43;2.17;;;;;;;;;;5131606;27;20068;-91
2023/05/19 12:02:16;;;;;;;10.88;3.35;;;;;;;;;;5131538;27;20058;-92
2023/05/19 12:05:02;;;;;;;7.95;2.78;;;;;;;;;;5130470;27;20506;-91
2023/05/19 12:07:54;;;;;;;7.60;2.50;;;;;;;;;;5131268;27;20087;-89
2023/05/19 12:10:39;;;;;;;5.97;2.22;;;;;;;;;;5132692;28;20084;-92
2023/05/19 12:13:24;;;;;;;9.13;2.60;;;;;;;;;;5131356;28;20087;-91
2023/05/19 12:16:10;;;;;;;7.28;2.47;;;;;;;;;;5130937;28;20049;-92
2023/05/19 12:18:54;;;;;;;7.60;3.13;;;;;;;;;;5131867;28;20504;-92
2023/05/19 12:21:40;;;;;;;9.07;2.83;;;;;;;;;;5131607;28;20282;-94
2023/05/19 12:24:25;;;;;;;9.18;3.03;;;;;;;;;;5131318;28;20042;-92
2023/05/19 12:27:13;;;;;;;8.40;2.25;;;;;;;;;;5130920;28;20520;-91
2023/05/19 12:29:58;;;;;;;7.90;2.72;;;;;;;;;;5130987;28;20460;-91
2023/05/19 12:32:43;;;;;;;6.95;2.67;;;;;;;;;;5131348;28;20047;-91
2023/05/19 12:35:29;;;;;;;9.32;2.65;;;;;;;;;;5131151;28;20034;-93
2023/05/19 12:38:14;;;;;;;8.25;2.70;;;;;;;;;;5116744;28;20038;-91
2023/05/19 12:40:59;;;;;;;6.10;2.15;;;;;;;;;;5130813;28;20038;-91
2023/05/19 12:43:43;;;;;;;6.53;2.13;;;;;;;;;;5131141;28;20056;-90
2023/05/19 12:46:32;;;;;;;7.15;2.25;;;;;;;;;;5112589;28;20510;-91
2023/05/19 12:49:17;;;;;;;11.63;3.03;;;;;;;;;;5135801;27;20065;-90
2023/05/19 12:52:04;;;;;;;7.50;3.05;;;;;;;;;;5134506;27;20046;-89
2023/05/19 12:54:51;;;;;;;5.88;2.38;;;;;;;;;;5148038;27;20062;-90
2023/05/19 12:57:37;;;;;;;7.93;2.92;;;;;;;;;;5124513;27;20034;-88
2023/05/19 13:00:27;;;;;;;9.07;2.40;;;;;;;;;;5108302;27;20539;-91
2023/05/19 13:03:16;;;;;;;9.82;2.60;;;21.50;56.30;;;;;;5137440;27;20841;-91
2023/05/19 13:06:01;;;;;;;6.18;2.97;;;;;;;;;;5130891;27;20081;-91
2023/05/19 13:08:48;;;;;;;7.38;2.10;;;;;;;;;;5132761;27;20045;-92
2023/05/19 13:11:33;;;;;;;5.30;1.98;;;;;;;;;;5156372;27;20037;-90
2023/05/19 13:14:21;;;;;;;11.55;2.72;;;;;;;;;;5140599;27;20057;-91
2023/05/19 13:17:06;;;;;;;7.38;2.30;;;;;;;;;;5140150;27;20046;-92
2023/05/19 13:19:51;;;;;;;8.57;2.60;;;;;;;;;;5156037;27;20394;-91
2023/05/19 13:22:35;;;;;;;6.80;2.78;;;;;;;;;;5140684;27;20084;-93
2023/05/19 13:25:20;;;;;;;5.75;2.50;;;;;;;;;;5156001;27;20075;-90
2023/05/19 13:28:05;;;;;;;8.70;2.72;;;;;;;;;;5155670;27;20038;-91
2023/05/19 13:30:50;;;;;;;7.43;2.35;;;;;;;;;;5128175;27;20093;-92
2023/05/19 13:33:35;;;;;;;9.75;2.65;;;;;;;;;;5125581;27;20046;-89
2023/05/19 13:36:20;;;;;;;6.75;3.42;;;;;;;;;;5133274;27;20038;-91
2023/05/19 13:39:05;;;;;;;7.75;2.47;;;;;;;;;;5133090;27;20030;-90
2023/05/19 13:41:49;;;;;;;9.68;2.30;;;;;;;;;;5134174;27;20037;-90
2023/05/19 13:44:33;;;;;;;7.15;3.00;;;;;;;;;;5139946;27;20037;-90
2023/05/19 13:47:18;;;;;;;8.70;2.60;;;;;;;;;;5155044;27;20094;-91
2023/05/19 13:50:03;;;;;;;8.15;2.63;;;;;;;;;;5139226;27;20484;-91
2023/05/19 13:52:48;;;;;;;7.93;2.38;;;;;;;;;;5133256;27;20041;-90
2023/05/19 13:55:33;;;;;;;10.07;2.28;;;;;;;;;;5145423;27;20103;-89
2023/05/19 13:58:18;;;;;;;7.40;2.30;;;;;;;;;;5146171;27;20445;-90
2023/05/19 14:01:03;;;;;;;7.28;2.63;;;;;;;;;;5153355;27;20406;-88
2023/05/19 14:03:48;;;;;;;8.73;2.30;;;;;;;;;;5139666;27;20053;-90
2023/05/19 14:06:32;;;;;;;6.43;1.65;;;;;;;;;;5144406;27;20592;-90
2023/05/19 14:09:17;;;;;;;6.40;1.80;;;;;;;;;;5139397;27;20498;-90
2023/05/19 14:12:02;;;;;;;6.53;2.35;;;;;;;;;;5144729;27;20072;-89
2023/05/19 14:14:47;;;;;;;6.82;2.20;;;;;;;;;;5144670;27;20087;-90
2023/05/19 14:17:32;;;;;;;8.70;2.10;;;;;;;;;;5156028;27;20130;-88
2023/05/19 14:20:17;;;;;;;7.90;2.22;;;;;;;;;;5143661;27;20048;-91
2023/05/19 14:23:02;;;;;;;8.48;1.98;;;;;;;;;;5143051;27;20166;-89
2023/05/19 14:25:46;;;;;;;7.53;2.38;;;;;;;;;;5143434;27;20040;-92
2023/05/19 14:28:31;;;;;;;6.32;2.17;;;;;;;;;;5158123;27;20041;-92
2023/05/19 14:31:16;;;;;;;9.15;2.35;;;;;;;;;;5164078;27;20075;-91
2023/05/19 14:34:00;;;;;;;9.02;2.70;;;;;;;;;;5143565;27;20077;-89
2023/05/19 14:36:45;;;;;;;10.00;2.22;;;;;;;;;;5138723;27;20038;-91
2023/05/19 14:39:33;;;;;;;5.97;2.03;;;;;;;;;;5143754;27;20041;-90
2023/05/19 14:42:18;;;;;;;7.68;2.42;;;;;;;;;;5138340;27;20033;-89
2023/05/19 14:45:03;;;;;;;6.97;2.67;;;;;;;;;;5138303;27;20079;-91
2023/05/19 14:47:47;;;;;;;8.95;2.80;;;;;;;;;;5138292;27;20045;-89
2023/05/19 14:50:32;;;;;;;7.28;3.30;;;;;;;;;;5153549;27;20081;-89
2023/05/19 14:53:16;;;;;;;5.38;2.25;;;;;;;;;;5138055;27;20091;-90
2023/05/19 14:56:01;;;;;;;6.70;2.20;;;;;;;;;;5123488;27;20182;-90
2023/05/19 14:58:45;;;;;;;8.05;2.60;;;;;;;;;;5147722;27;20079;-90
2023/05/19 15:01:32;;;;;;;7.40;2.63;;;;;;;;;;5149710;27;20041;-88
2023/05/19 15:04:17;;;;;;;4.93;2.30;;;;;;;;;;5130637;27;20045;-91
2023/05/19 15:07:02;;;;;;;7.50;2.30;;;;;;;;;;5138197;27;20083;-90
2023/05/19 15:09:46;;;;;;;6.72;2.25;;;;;;;;;;5137393;27;20086;-89
2023/05/19 15:12:31;;;;;;;8.18;2.60;;;;;;;;;;5147959;27;20114;-89
2023/05/19 15:15:16;;;;;;;10.40;2.42;;;;;;;;;;5153361;27;20034;-90
2023/05/19 15:18:00;;;;;;;9.25;2.83;;;;;;;;;;5153750;27;20036;-90
2023/05/19 15:20:45;;;;;;;5.47;2.53;;;;;;;;;;5124370;27;20038;-91
2023/05/19 15:23:29;;;;;;;9.07;2.33;;;;;;;;;;5127502;27;20191;-89
2023/05/19 15:26:14;;;;;;;8.10;2.55;;;;;;;;;;5124367;27;20050;-91
2023/05/19 15:29:02;;;;;;;5.35;2.40;;;;;;;;;;5139169;27;20540;-95
2023/05/19 15:31:50;;;;;;;8.75;2.65;;;;;;;;;;5128317;27;20099;-93
2023/05/19 15:34:35;;;;;;;7.28;2.38;;;;;;;;;;5153032;27;20095;-91
2023/05/19 15:37:19;;;;;;;8.02;2.50;;;;;;;;;;5130653;27;20042;-91
2023/05/19 15:40:05;;;;;;;5.93;2.25;;;;;;;;;;5148078;27;20513;-91
2023/05/19 15:42:53;;;;;;;8.68;2.47;;;;;;;;;;5137835;27;20094;-91
2023/05/19 15:45:37;;;;;;;7.93;2.88;;;;;;;;;;5133972;27;20033;-90
2023/05/19 15:48:23;;;;;;;5.28;2.38;;;;;;;;;;5147012;27;20390;-91
2023/05/19 15:51:07;;;;;;;8.07;2.78;;;;;;;;;;5148275;27;20038;-93
2023/05/19 15:53:52;;;;;;;8.77;2.95;;;;;;;;;;5136868;27;20126;-94
2023/05/19 15:56:37;;;;;;;7.40;2.60;;;;;;;;;;5128020;27;20066;-89
2023/05/19 15:59:21;;;;;;;11.35;2.83;;;;;;;;;;5122234;27;20049;-91
2023/05/19 16:02:06;;;;;;;7.40;2.70;;;;;;;;;;5153064;27;20115;-92
2023/05/19 16:04:50;;;;;;;5.32;2.60;;;;;;;;;;5137261;27;20041;-91
2023/05/19 16:07:35;;;;;;;5.25;2.40;;;;;;;;;;5152442;27;20077;-88
2023/05/19 16:10:19;;;;;;;10.55;2.50;;;;;;;;;;5136174;27;20046;-90
2023/05/19 16:13:04;;;;;;;11.27;2.50;;;;;;;;;;5128905;27;20053;-90
2023/05/19 16:15:51;;;;;;;5.85;2.53;;;;;;;;;;5147055;27;20066;-91
2023/05/19 16:18:36;;;;;;;7.57;2.72;;;;;;;;;;5131853;27;20110;-94
2023/05/19 16:21:23;;;;;;;6.28;2.58;;;;;;;;;;5137532;27;20038;-92
2023/05/19 16:24:07;;;;;;;11.63;3.78;;;;;;;;;;5127715;27;20061;-94